LiveATC.Net - Listen to live air traffic control over the Internet!


ICAO: SBMQ  IATA: MCP   Airport: Alberto Alcolumbre Airport
City: Macapa
Country: Brazil   Continent: South America
SBMQ METAR Weather: SBMQ 171200Z 33006KT 8000 NSC 27/25 Q1013
SBMQ Flight Activity (FlightAware)

SBMQ Tower/App/Center
Feed Status: UP   Listeners: 0
Listen in your browser - HTML5 player (in browser, HTML5)
Click here to listen with your own player (launches your MP3 player)
SBMQ Tower/App/Center Audio Archives
FacilityFrequency
Amazonico Center123.950
Amazonico Center128.000
Macapa Approach119.000
Macapa Tower118.000

NOTICE

Unauthorized use prohibited. See LiveATC.net Terms of Service


Find LiveATC Audio Streams


Airport/ARTCC Code

Frequency Search
(e.g., 124.400, 128.75)
Site-wide search
 


Browse LiveATC Feeds
Top 50 LiveATC Feeds
LiveATC Feed Map
Bad Weather Areas

LiveATC FAQ
Offer LiveATC feed
Contact LiveATC.net
Press Inquiries

LiveATC on iPhone
LiveATC on Android

Windows Phone
Windows 8/10

LiveATC Mobile
(Mobile browser)

ATC Audio Archives
Interesting Recordings

LiveATC Forums


Home Page
About LiveATC.net
Make a Donation
Terms of Use
Privacy Policy

Canadian Air Freqs

AIRMETs/SIGMETs

FAA Airport Status
Nat'l Airspace Status
Arrival Demand Charts


Server Software By:
Icecast.org
Liquidsoap